createdAt,value
2017-04-08T00:00:17.243Z,1017.12
2017-04-08T00:00:58.133Z,1017.08
2017-04-08T00:01:39.018Z,1017.12
2017-04-08T00:02:19.897Z,1017.11
2017-04-08T00:03:00.783Z,1017.13
2017-04-08T00:03:41.666Z,1017.09
2017-04-08T00:04:22.549Z,1017.11
2017-04-08T00:05:03.430Z,1017.12
2017-04-08T00:05:44.318Z,1017.17
2017-04-08T00:06:25.204Z,1017.15
2017-04-08T00:07:06.080Z,1017.12
2017-04-08T00:07:46.962Z,1017.09
2017-04-08T00:08:27.844Z,1017.11
2017-04-08T00:09:08.733Z,1017.19
2017-04-08T00:09:49.614Z,1017.17
2017-04-08T00:10:30.500Z,1017.12
2017-04-08T00:11:11.381Z,1017.11
2017-04-08T00:11:52.264Z,1017.1
2017-04-08T00:12:33.144Z,1017.17
2017-04-08T00:13:14.027Z,1017.12
2017-04-08T00:13:54.942Z,1017.14
2017-04-08T00:14:35.781Z,1017.13
2017-04-08T00:15:16.670Z,1017.08
2017-04-08T00:15:57.551Z,1017.1
2017-04-08T00:16:38.448Z,1017.16
2017-04-08T00:17:19.330Z,1017.14
2017-04-08T00:18:00.210Z,1017.24
2017-04-08T00:18:41.091Z,1017.15
2017-04-08T00:19:21.997Z,1017.21
2017-04-08T00:20:02.851Z,1017.15
2017-04-08T00:20:43.750Z,1017.22
2017-04-08T00:21:24.633Z,1017.22
2017-04-08T00:22:05.532Z,1017.24
2017-04-08T00:22:46.399Z,1017.23
2017-04-08T00:23:27.280Z,1017.23
2017-04-08T00:24:08.207Z,1017.26
2017-04-08T00:24:49.083Z,1017.27
2017-04-08T00:25:29.964Z,1017.25
2017-04-08T00:26:10.838Z,1017.25
2017-04-08T00:26:51.724Z,1017.23
2017-04-08T00:27:32.609Z,1017.29
2017-04-08T00:28:13.500Z,1017.31
2017-04-08T00:28:54.382Z,1017.24
2017-04-08T00:29:35.261Z,1017.26
2017-04-08T00:30:16.144Z,1017.28
2017-04-08T00:30:57.033Z,1017.28
2017-04-08T00:31:37.914Z,1017.24
2017-04-08T00:32:18.790Z,1017.29
2017-04-08T00:32:59.675Z,1017.31
2017-04-08T00:33:40.559Z,1017.31
2017-04-08T00:34:21.441Z,1017.31
2017-04-08T00:35:02.324Z,1017.32
2017-04-08T00:35:43.212Z,1017.38
2017-04-08T00:36:24.098Z,1017.23
2017-04-08T00:37:04.976Z,1017.25
2017-04-08T00:37:45.857Z,1017.28
2017-04-08T00:38:26.745Z,1017.28
2017-04-08T00:39:07.632Z,1017.33
2017-04-08T00:39:48.501Z,1017.3
2017-04-08T00:40:29.388Z,1017.29
2017-04-08T00:41:10.276Z,1017.29
2017-04-08T00:41:51.156Z,1017.26
2017-04-08T00:42:32.035Z,1017.31
2017-04-08T00:43:12.926Z,1017.4
2017-04-08T00:43:53.812Z,1017.25
2017-04-08T00:44:34.703Z,1017.3
2017-04-08T00:45:15.581Z,1017.31
2017-04-08T00:45:56.465Z,1017.38
2017-04-08T00:46:37.346Z,1017.34
2017-04-08T00:47:18.218Z,1017.32
2017-04-08T00:47:59.099Z,1017.36
2017-04-08T00:48:40.022Z,1017.43
2017-04-08T00:49:20.908Z,1017.4
2017-04-08T00:50:01.792Z,1017.35
2017-04-08T00:50:42.671Z,1017.36
2017-04-08T00:51:23.554Z,1017.31
2017-04-08T00:52:04.481Z,1017.32
2017-04-08T00:52:45.332Z,1017.38
2017-04-08T00:53:26.223Z,1017.38
2017-04-08T00:54:07.105Z,1017.39
2017-04-08T00:54:47.985Z,1017.37
2017-04-08T00:55:28.871Z,1017.33
2017-04-08T00:56:09.754Z,1017.34
2017-04-08T00:56:50.633Z,1017.37
2017-04-08T00:57:31.519Z,1017.4
2017-04-08T00:58:12.407Z,1017.38
2017-04-08T00:58:53.301Z,1017.33
2017-04-08T00:59:34.172Z,1017.36
2017-04-08T01:00:15.057Z,1017.33
2017-04-08T01:00:55.948Z,1017.36
2017-04-08T01:01:36.831Z,1017.37
2017-04-08T01:02:17.711Z,1017.33
2017-04-08T01:02:58.596Z,1017.31
2017-04-08T01:03:39.489Z,1017.32
2017-04-08T01:04:20.374Z,1017.29
2017-04-08T01:05:01.256Z,1017.32
2017-04-08T01:05:42.137Z,1017.36
2017-04-08T01:06:23.017Z,1017.28
2017-04-08T01:07:03.893Z,1017.34
2017-04-08T01:07:44.777Z,1017.29
2017-04-08T01:08:25.656Z,1017.3
2017-04-08T01:09:06.539Z,1017.35
2017-04-08T01:09:47.418Z,1017.3
2017-04-08T01:10:28.302Z,1017.31
2017-04-08T01:11:09.184Z,1017.33
2017-04-08T01:11:50.072Z,1017.35
2017-04-08T01:12:30.960Z,1017.34
2017-04-08T01:13:11.844Z,1017.33
2017-04-08T01:13:52.721Z,1017.3
2017-04-08T01:14:33.603Z,1017.34
2017-04-08T01:15:14.483Z,1017.32
2017-04-08T01:15:55.367Z,1017.37
2017-04-08T01:16:36.233Z,1017.38
2017-04-08T01:17:17.113Z,1017.31
2017-04-08T01:17:57.973Z,1017.34
2017-04-08T01:18:38.856Z,1017.32
2017-04-08T01:19:19.736Z,1017.32
2017-04-08T01:20:00.614Z,1017.3
2017-04-08T01:20:41.494Z,1017.39
2017-04-08T01:21:22.409Z,1017.4
2017-04-08T01:22:03.273Z,1017.33
2017-04-08T01:22:44.155Z,1017.33
2017-04-08T01:23:25.037Z,1017.32
2017-04-08T01:24:05.924Z,1017.32
2017-04-08T01:24:46.808Z,1017.31
2017-04-08T01:25:27.699Z,1017.28
2017-04-08T01:26:08.573Z,1017.3
2017-04-08T01:26:49.458Z,1017.31
2017-04-08T01:27:30.342Z,1017.27
2017-04-08T01:28:11.224Z,1017.28
2017-04-08T01:28:52.105Z,1017.31
2017-04-08T01:29:32.977Z,1017.32
2017-04-08T01:30:13.856Z,1017.33
2017-04-08T01:30:54.737Z,1017.31
2017-04-08T01:31:35.623Z,1017.32
2017-04-08T01:32:16.503Z,1017.33
2017-04-08T01:32:57.381Z,1017.32
2017-04-08T01:33:38.268Z,1017.3
2017-04-08T01:34:19.155Z,1017.32
2017-04-08T01:35:00.031Z,1017.34
2017-04-08T01:35:40.948Z,1017.29
2017-04-08T01:36:21.835Z,1017.34
2017-04-08T01:37:02.706Z,1017.31
2017-04-08T01:37:43.588Z,1017.34
2017-04-08T01:38:24.475Z,1017.34
2017-04-08T01:39:05.379Z,1017.35
2017-04-08T01:39:46.269Z,1017.38
2017-04-08T01:40:27.145Z,1017.39
2017-04-08T01:41:08.024Z,1017.38
2017-04-08T01:41:48.905Z,1017.37
2017-04-08T01:42:29.787Z,1017.38
2017-04-08T01:43:10.671Z,1017.37
2017-04-08T01:43:51.555Z,1017.37
2017-04-08T01:44:32.438Z,1017.37
2017-04-08T01:45:13.319Z,1017.36
2017-04-08T01:45:54.207Z,1017.4
2017-04-08T01:46:35.087Z,1017.39
2017-04-08T01:47:15.967Z,1017.4
2017-04-08T01:47:56.842Z,1017.39
2017-04-08T01:48:37.723Z,1017.42
2017-04-08T01:49:18.605Z,1017.45
2017-04-08T01:49:59.489Z,1017.47
2017-04-08T01:50:40.369Z,1017.42
2017-04-08T01:51:21.254Z,1017.46
2017-04-08T01:52:02.142Z,1017.41
2017-04-08T01:52:43.022Z,1017.44
2017-04-08T01:53:23.907Z,1017.43
2017-04-08T01:54:04.790Z,1017.46
2017-04-08T01:54:45.722Z,1017.42
2017-04-08T01:55:26.599Z,1017.47
2017-04-08T01:56:07.484Z,1017.47
2017-04-08T01:56:48.367Z,1017.48
2017-04-08T01:57:29.240Z,1017.45
2017-04-08T01:58:10.114Z,1017.5
2017-04-08T01:58:50.994Z,1017.49
2017-04-08T01:59:31.880Z,1017.5
2017-04-08T02:00:12.761Z,1017.51
2017-04-08T02:00:53.643Z,1017.49
2017-04-08T02:01:34.525Z,1017.51
2017-04-08T02:02:15.415Z,1017.53
2017-04-08T02:02:56.297Z,1017.5
2017-04-08T02:03:37.177Z,1017.57
2017-04-08T02:04:18.066Z,1017.54
2017-04-08T02:04:58.947Z,1017.5
2017-04-08T02:05:39.830Z,1017.57
2017-04-08T02:06:20.712Z,1017.56
2017-04-08T02:07:01.598Z,1017.54
2017-04-08T02:07:42.484Z,1017.54
2017-04-08T02:08:23.362Z,1017.56
2017-04-08T02:09:04.242Z,1017.56
2017-04-08T02:09:45.131Z,1017.57
2017-04-08T02:10:26.008Z,1017.59
2017-04-08T02:11:06.892Z,1017.57
2017-04-08T02:11:47.772Z,1017.59
2017-04-08T02:12:28.654Z,1017.58
2017-04-08T02:13:09.533Z,1017.55
2017-04-08T02:13:50.429Z,1017.54
2017-04-08T02:14:31.310Z,1017.52
2017-04-08T02:15:12.195Z,1017.58
2017-04-08T02:15:53.079Z,1017.59
2017-04-08T02:16:33.959Z,1017.6
2017-04-08T02:17:14.842Z,1017.6
2017-04-08T02:17:55.722Z,1017.57
2017-04-08T02:18:36.607Z,1017.55
2017-04-08T02:19:17.493Z,1017.61
2017-04-08T02:19:58.376Z,1017.63
2017-04-08T02:20:39.260Z,1017.59
2017-04-08T02:21:20.144Z,1017.61
2017-04-08T02:22:01.028Z,1017.64
2017-04-08T02:22:41.906Z,1017.62
2017-04-08T02:23:22.789Z,1017.6
2017-04-08T02:24:03.683Z,1017.61
2017-04-08T02:24:44.563Z,1017.62
2017-04-08T02:25:25.442Z,1017.62
2017-04-08T02:26:06.330Z,1017.56
2017-04-08T02:26:47.223Z,1017.6
2017-04-08T02:27:28.113Z,1017.62
2017-04-08T02:28:09.005Z,1017.58
2017-04-08T02:28:49.896Z,1017.62
2017-04-08T02:29:30.786Z,1017.6
2017-04-08T02:30:11.668Z,1017.64
2017-04-08T02:30:52.557Z,1017.61
2017-04-08T02:31:33.445Z,1017.6
2017-04-08T02:32:14.334Z,1017.64
2017-04-08T02:32:55.221Z,1017.67
2017-04-08T02:33:36.108Z,1017.63
2017-04-08T02:34:16.993Z,1017.65
2017-04-08T02:34:57.870Z,1017.68
2017-04-08T02:35:38.755Z,1017.68
2017-04-08T02:36:19.644Z,1017.75
2017-04-08T02:37:00.530Z,1017.7
2017-04-08T02:37:41.410Z,1017.7
2017-04-08T02:38:22.324Z,1017.73
2017-04-08T02:39:03.206Z,1017.75
2017-04-08T02:39:44.086Z,1017.77
2017-04-08T02:40:24.966Z,1017.77
2017-04-08T02:41:05.845Z,1017.74
2017-04-08T02:41:46.735Z,1017.75
2017-04-08T02:42:27.608Z,1017.76
2017-04-08T02:43:08.491Z,1017.76
2017-04-08T02:43:49.378Z,1017.71
2017-04-08T02:44:30.265Z,1017.74
2017-04-08T02:45:11.147Z,1017.73
2017-04-08T02:45:52.026Z,1017.7
2017-04-08T02:46:32.913Z,1017.8
2017-04-08T02:47:13.793Z,1017.78
2017-04-08T02:47:54.673Z,1017.8
2017-04-08T02:48:35.558Z,1017.79
2017-04-08T02:49:16.451Z,1017.74
2017-04-08T02:49:57.334Z,1017.74
2017-04-08T02:50:38.207Z,1017.71
2017-04-08T02:51:19.090Z,1017.8
2017-04-08T02:51:59.973Z,1017.72
2017-04-08T02:52:40.860Z,1017.71
2017-04-08T02:53:21.736Z,1017.76
2017-04-08T02:54:02.625Z,1017.82
2017-04-08T02:54:43.508Z,1017.83
2017-04-08T02:55:24.399Z,1017.82
2017-04-08T02:56:05.300Z,1017.83
2017-04-08T02:56:46.183Z,1017.83
2017-04-08T02:57:27.067Z,1017.85
2017-04-08T02:58:07.947Z,1017.8
2017-04-08T02:58:48.829Z,1017.87
2017-04-08T02:59:29.711Z,1017.85
2017-04-08T03:00:10.592Z,1017.74
2017-04-08T03:00:51.467Z,1017.77
2017-04-08T03:01:32.353Z,1017.77
2017-04-08T03:02:13.233Z,1017.81
2017-04-08T03:02:54.118Z,1017.76
2017-04-08T03:03:35.000Z,1017.86
2017-04-08T03:04:15.897Z,1017.82
2017-04-08T03:04:56.784Z,1017.83
2017-04-08T03:05:37.682Z,1017.84
2017-04-08T03:06:18.554Z,1017.81
2017-04-08T03:06:59.434Z,1017.86
2017-04-08T03:07:40.324Z,1017.83
2017-04-08T03:08:21.244Z,1017.86
2017-04-08T03:09:02.127Z,1017.8
2017-04-08T03:09:43.009Z,1017.82
2017-04-08T03:10:23.893Z,1017.87
2017-04-08T03:11:04.777Z,1017.87
2017-04-08T03:11:45.670Z,1017.83
2017-04-08T03:12:26.550Z,1017.88
2017-04-08T03:13:07.435Z,1017.84
2017-04-08T03:13:48.335Z,1017.88
2017-04-08T03:14:29.222Z,1017.88
2017-04-08T03:15:10.100Z,1017.85
2017-04-08T03:15:50.987Z,1017.85
2017-04-08T03:16:31.869Z,1017.85
2017-04-08T03:17:12.753Z,1017.89
2017-04-08T03:17:53.644Z,1017.85
2017-04-08T03:18:34.513Z,1017.85
2017-04-08T03:19:15.393Z,1017.89
2017-04-08T03:19:56.274Z,1017.85
2017-04-08T03:20:37.158Z,1017.85
2017-04-08T03:21:18.035Z,1017.9
2017-04-08T03:21:58.917Z,1017.86
2017-04-08T03:22:39.799Z,1017.82
2017-04-08T03:23:20.685Z,1017.85
2017-04-08T03:24:01.568Z,1017.84
2017-04-08T03:24:42.446Z,1017.88
2017-04-08T03:25:23.342Z,1017.9
2017-04-08T03:26:04.219Z,1017.85
2017-04-08T03:26:45.099Z,1017.86
2017-04-08T03:27:25.985Z,1017.86
2017-04-08T03:28:06.866Z,1017.89
2017-04-08T03:28:47.777Z,1017.87
2017-04-08T03:29:28.657Z,1017.88
2017-04-08T03:30:09.538Z,1017.88
2017-04-08T03:30:50.422Z,1017.88
2017-04-08T03:31:31.293Z,1017.94
2017-04-08T03:32:12.169Z,1017.95
2017-04-08T03:32:53.052Z,1017.92
2017-04-08T03:33:33.941Z,1017.95
2017-04-08T03:34:14.826Z,1017.97
2017-04-08T03:34:55.702Z,1017.95
2017-04-08T03:35:36.586Z,1017.9
2017-04-08T03:36:17.472Z,1018.01
2017-04-08T03:36:58.361Z,1017.99
2017-04-08T03:37:39.234Z,1017.95
2017-04-08T03:38:20.113Z,1017.95
2017-04-08T03:39:01.004Z,1017.97
2017-04-08T03:39:41.893Z,1018
2017-04-08T03:40:22.767Z,1018.04
2017-04-08T03:41:03.651Z,1017.96
2017-04-08T03:41:44.545Z,1017.96
2017-04-08T03:42:25.426Z,1017.98
2017-04-08T03:43:06.301Z,1018.01
2017-04-08T03:43:47.180Z,1018.02
2017-04-08T03:44:28.067Z,1018
2017-04-08T03:45:08.951Z,1017.99
2017-04-08T03:45:49.832Z,1017.99
2017-04-08T03:46:30.713Z,1018.02
2017-04-08T03:47:11.604Z,1018.04
2017-04-08T03:47:52.493Z,1018.04
2017-04-08T03:48:33.374Z,1018.01
2017-04-08T03:49:14.254Z,1018.02
2017-04-08T03:49:55.140Z,1018.05
2017-04-08T03:50:36.025Z,1018.06
2017-04-08T03:51:16.900Z,1018.04
2017-04-08T03:51:57.783Z,1018.06
2017-04-08T03:52:38.666Z,1018.11
2017-04-08T03:53:19.544Z,1018.08
2017-04-08T03:54:00.424Z,1018.12
2017-04-08T03:54:41.320Z,1018.09
2017-04-08T03:55:22.201Z,1018.13
2017-04-08T03:56:03.091Z,1018.1
2017-04-08T03:56:43.962Z,1018.13
2017-04-08T03:57:24.842Z,1018.12
2017-04-08T03:58:05.736Z,1018.11
2017-04-08T03:58:46.617Z,1018.14
2017-04-08T03:59:27.494Z,1018.15
2017-04-08T04:00:08.381Z,1018.14
2017-04-08T04:00:49.268Z,1018.1
2017-04-08T04:01:30.143Z,1018.1
2017-04-08T04:02:11.025Z,1018.16
2017-04-08T04:02:51.903Z,1018.14
2017-04-08T04:03:32.793Z,1018.16
2017-04-08T04:04:13.676Z,1018.19
2017-04-08T04:04:54.552Z,1018.18
2017-04-08T04:05:35.432Z,1018.15
2017-04-08T04:06:16.319Z,1018.2
2017-04-08T04:06:57.194Z,1018.26
2017-04-08T04:07:38.087Z,1018.21
2017-04-08T04:08:18.960Z,1018.23
2017-04-08T04:08:59.838Z,1018.22
2017-04-08T04:09:40.724Z,1018.23
2017-04-08T04:10:21.608Z,1018.23
2017-04-08T04:11:02.486Z,1018.25
2017-04-08T04:11:43.364Z,1018.27
2017-04-08T04:12:24.239Z,1018.28
2017-04-08T04:13:05.122Z,1018.29
2017-04-08T04:13:46.008Z,1018.28
2017-04-08T04:14:26.881Z,1018.28
2017-04-08T04:15:07.765Z,1018.31
2017-04-08T04:15:48.651Z,1018.32
2017-04-08T04:16:29.535Z,1018.32
2017-04-08T04:17:10.413Z,1018.34
2017-04-08T04:17:51.295Z,1018.44
2017-04-08T04:18:32.187Z,1018.43
2017-04-08T04:19:13.073Z,1018.42
2017-04-08T04:19:53.949Z,1018.41
2017-04-08T04:20:34.831Z,1018.42
2017-04-08T04:21:15.717Z,1018.37
2017-04-08T04:21:56.597Z,1018.41
2017-04-08T04:22:37.478Z,1018.41
2017-04-08T04:23:18.362Z,1018.42
2017-04-08T04:23:59.246Z,1018.44
2017-04-08T04:24:40.128Z,1018.44
2017-04-08T04:25:21.011Z,1018.43
2017-04-08T04:26:01.898Z,1018.45
2017-04-08T04:26:42.779Z,1018.49
2017-04-08T04:27:23.660Z,1018.47
2017-04-08T04:28:04.539Z,1018.51
2017-04-08T04:28:45.425Z,1018.49
2017-04-08T04:29:26.316Z,1018.47
2017-04-08T04:30:07.198Z,1018.51
2017-04-08T04:30:48.080Z,1018.56
2017-04-08T04:31:28.963Z,1018.51
2017-04-08T04:32:09.846Z,1018.55
2017-04-08T04:32:50.726Z,1018.52
2017-04-08T04:33:31.608Z,1018.52
2017-04-08T04:34:12.495Z,1018.56
2017-04-08T04:34:53.378Z,1018.52
2017-04-08T04:35:34.259Z,1018.55
2017-04-08T04:36:15.150Z,1018.6
2017-04-08T04:36:56.031Z,1018.62
2017-04-08T04:37:36.915Z,1018.6
2017-04-08T04:38:17.794Z,1018.58
2017-04-08T04:38:58.676Z,1018.61
2017-04-08T04:39:39.562Z,1018.63
2017-04-08T04:40:20.448Z,1018.67
2017-04-08T04:41:01.340Z,1018.61
2017-04-08T04:41:42.216Z,1018.65
2017-04-08T04:42:23.098Z,1018.67
2017-04-08T04:43:03.981Z,1018.7
2017-04-08T04:43:44.866Z,1018.67
2017-04-08T04:44:25.741Z,1018.67
2017-04-08T04:45:06.629Z,1018.63
2017-04-08T04:45:47.526Z,1018.66
2017-04-08T04:46:28.406Z,1018.66
2017-04-08T04:47:09.282Z,1018.64
2017-04-08T04:47:50.162Z,1018.68
2017-04-08T04:48:31.042Z,1018.67
2017-04-08T04:49:11.923Z,1018.69
2017-04-08T04:49:52.809Z,1018.67
2017-04-08T04:50:33.696Z,1018.63
2017-04-08T04:51:14.574Z,1018.66
2017-04-08T04:51:55.463Z,1018.69
2017-04-08T04:52:36.365Z,1018.64
2017-04-08T04:53:17.259Z,1018.68
2017-04-08T04:53:58.140Z,1018.71
2017-04-08T04:54:39.020Z,1018.7
2017-04-08T04:55:19.906Z,1018.73
2017-04-08T04:56:00.794Z,1018.76
2017-04-08T04:56:41.674Z,1018.78
2017-04-08T04:57:22.556Z,1018.79
2017-04-08T04:58:03.437Z,1018.79
2017-04-08T04:58:44.326Z,1018.78
2017-04-08T04:59:25.231Z,1018.78
2017-04-08T05:00:06.106Z,1018.84
2017-04-08T05:00:47.001Z,1018.8
2017-04-08T05:01:27.893Z,1018.81
2017-04-08T05:02:08.766Z,1018.86
2017-04-08T05:02:49.647Z,1018.78
2017-04-08T05:03:30.530Z,1018.82
2017-04-08T05:04:11.410Z,1018.83
2017-04-08T05:04:52.288Z,1018.78
2017-04-08T05:05:33.170Z,1018.8
2017-04-08T05:06:14.076Z,1018.79
2017-04-08T05:06:54.959Z,1018.83
2017-04-08T05:07:35.841Z,1018.81
2017-04-08T05:08:16.721Z,1018.78
2017-04-08T05:08:57.602Z,1018.79
2017-04-08T05:09:38.482Z,1018.85
2017-04-08T05:10:19.364Z,1018.88
2017-04-08T05:11:00.236Z,1018.85
2017-04-08T05:11:41.117Z,1018.83
2017-04-08T05:12:22.000Z,1018.88
2017-04-08T05:13:02.882Z,1018.88
2017-04-08T05:13:43.750Z,1018.87
2017-04-08T05:14:24.638Z,1018.82
2017-04-08T05:15:05.521Z,1018.88
2017-04-08T05:15:46.406Z,1018.86
2017-04-08T05:16:27.286Z,1018.87
2017-04-08T05:17:08.167Z,1018.93
2017-04-08T05:17:49.066Z,1018.89
2017-04-08T05:18:29.938Z,1018.85
2017-04-08T05:19:10.818Z,1018.88
2017-04-08T05:19:51.695Z,1018.89
2017-04-08T05:20:32.579Z,1018.89
2017-04-08T05:21:13.459Z,1018.89
2017-04-08T05:21:54.339Z,1018.92
2017-04-08T05:22:35.226Z,1018.93
2017-04-08T05:23:16.109Z,1018.9
2017-04-08T05:23:56.997Z,1018.89
2017-04-08T05:24:37.878Z,1018.91
2017-04-08T05:25:18.754Z,1018.91
2017-04-08T05:25:59.634Z,1018.94
2017-04-08T05:26:40.516Z,1018.95
2017-04-08T05:27:21.398Z,1018.96
2017-04-08T05:28:02.278Z,1018.97
2017-04-08T05:28:43.161Z,1018.99
2017-04-08T05:29:24.048Z,1019.01
2017-04-08T05:30:04.933Z,1019.02
2017-04-08T05:30:45.848Z,1019.04
2017-04-08T05:31:26.731Z,1019.03
2017-04-08T05:32:07.615Z,1019.05
2017-04-08T05:32:48.489Z,1019.03
2017-04-08T05:33:29.370Z,1019.08
2017-04-08T05:34:10.279Z,1019.08
2017-04-08T05:34:51.137Z,1019.1
2017-04-08T05:35:32.016Z,1019.06
2017-04-08T05:36:12.896Z,1019.08
2017-04-08T05:36:53.782Z,1019.1
2017-04-08T05:37:34.664Z,1019.12
2017-04-08T05:38:15.547Z,1019.13
2017-04-08T05:38:56.435Z,1019.1
2017-04-08T05:39:37.321Z,1019.12
2017-04-08T05:40:18.205Z,1019.12
2017-04-08T05:40:59.085Z,1019.13
2017-04-08T05:41:39.969Z,1019.09
2017-04-08T05:42:20.858Z,1019.15
2017-04-08T05:43:01.740Z,1019.07
2017-04-08T05:43:42.620Z,1019.09
2017-04-08T05:44:23.506Z,1019.08
2017-04-08T05:45:04.391Z,1019.14
2017-04-08T05:45:45.273Z,1019.12
2017-04-08T05:46:26.150Z,1019.12
2017-04-08T05:47:07.028Z,1019.16
2017-04-08T05:47:47.914Z,1019.12
2017-04-08T05:48:28.802Z,1019.13
2017-04-08T05:49:09.677Z,1019.17
2017-04-08T05:49:50.556Z,1019.16
2017-04-08T05:50:31.445Z,1019.16
2017-04-08T05:51:12.322Z,1019.18
2017-04-08T05:51:53.205Z,1019.15
2017-04-08T05:52:34.084Z,1019.19
2017-04-08T05:53:14.954Z,1019.11
2017-04-08T05:53:55.848Z,1019.15
2017-04-08T05:54:36.724Z,1019.08
2017-04-08T05:55:17.606Z,1019.14
2017-04-08T05:55:58.485Z,1019.14
2017-04-08T05:56:39.369Z,1019.11
2017-04-08T05:57:20.253Z,1019.13
2017-04-08T05:58:01.136Z,1019.16
2017-04-08T05:58:42.013Z,1019.14
2017-04-08T05:59:22.895Z,1019.16
2017-04-08T06:00:03.779Z,1019.17
2017-04-08T06:00:44.662Z,1019.15
2017-04-08T06:01:25.537Z,1019.17
2017-04-08T06:02:06.417Z,1019.2
2017-04-08T06:02:47.307Z,1019.17
2017-04-08T06:03:28.196Z,1019.21
2017-04-08T06:04:09.072Z,1019.16
2017-04-08T06:04:49.954Z,1019.19
2017-04-08T06:05:30.837Z,1019.21
2017-04-08T06:06:11.719Z,1019.21
2017-04-08T06:06:52.610Z,1019.24
2017-04-08T06:07:33.495Z,1019.26
2017-04-08T06:08:14.370Z,1019.24
2017-04-08T06:08:55.265Z,1019.25
2017-04-08T06:09:36.136Z,1019.19
2017-04-08T06:10:17.016Z,1019.22
2017-04-08T06:10:57.904Z,1019.24
2017-04-08T06:11:38.793Z,1019.21
2017-04-08T06:12:19.678Z,1019.2
2017-04-08T06:13:00.554Z,1019.2
2017-04-08T06:13:41.442Z,1019.18
2017-04-08T06:14:22.328Z,1019.18
2017-04-08T06:15:03.207Z,1019.2
2017-04-08T06:15:44.087Z,1019.15
2017-04-08T06:16:24.974Z,1019.15
2017-04-08T06:17:05.861Z,1019.11
2017-04-08T06:17:46.743Z,1019.14
2017-04-08T06:18:27.625Z,1019.11
2017-04-08T06:19:08.506Z,1019.12
2017-04-08T06:19:49.413Z,1019.14
2017-04-08T06:20:30.295Z,1019.13
2017-04-08T06:21:11.182Z,1019.12
2017-04-08T06:21:52.073Z,1019.11
2017-04-08T06:22:32.954Z,1019.11
2017-04-08T06:23:13.828Z,1019.1
2017-04-08T06:23:54.716Z,1019.09
2017-04-08T06:24:35.597Z,1019.07
2017-04-08T06:25:16.474Z,1019.09
2017-04-08T06:25:57.354Z,1019.09
2017-04-08T06:26:38.247Z,1019.12
2017-04-08T06:27:19.143Z,1019.09
2017-04-08T06:28:00.020Z,1019.14
2017-04-08T06:28:40.899Z,1019.11
2017-04-08T06:29:21.784Z,1019.15
2017-04-08T06:30:02.676Z,1019.09
2017-04-08T06:30:43.552Z,1019.07
2017-04-08T06:31:24.432Z,1019.11
2017-04-08T06:32:05.318Z,1019.14
2017-04-08T06:32:46.205Z,1019.14
2017-04-08T06:33:27.084Z,1019.09
2017-04-08T06:34:08.010Z,1019.17
2017-04-08T06:34:48.929Z,1019.15
2017-04-08T06:35:29.774Z,1019.14
2017-04-08T06:36:10.664Z,1019.17
2017-04-08T06:36:51.556Z,1019.17
2017-04-08T06:37:32.424Z,1019.18
2017-04-08T06:38:13.302Z,1019.16
2017-04-08T06:38:54.192Z,1019.21
2017-04-08T06:39:35.069Z,1019.18
2017-04-08T06:41:44.107Z,1019.22
2017-04-08T06:42:24.999Z,1019.19
2017-04-08T06:43:05.866Z,1019.22
2017-04-08T06:43:46.773Z,1019.21
2017-04-08T06:44:27.657Z,1019.22
2017-04-08T06:45:08.544Z,1019.18
2017-04-08T06:45:49.435Z,1019.21
2017-04-08T06:46:30.310Z,1019.19
2017-04-08T06:47:11.171Z,1019.24
2017-04-08T06:47:52.055Z,1019.28
2017-04-08T06:48:32.938Z,1019.27
2017-04-08T06:49:13.840Z,1019.3
2017-04-08T06:49:54.726Z,1019.33
2017-04-08T06:50:35.611Z,1019.35
2017-04-08T06:51:16.487Z,1019.35
2017-04-08T06:51:57.364Z,1019.36
2017-04-08T06:52:38.239Z,1019.38
2017-04-08T06:53:19.122Z,1019.35
2017-04-08T06:54:00.002Z,1019.35
2017-04-08T06:54:40.893Z,1019.41
2017-04-08T06:55:21.766Z,1019.41
2017-04-08T06:56:02.645Z,1019.38
2017-04-08T06:56:43.522Z,1019.38
2017-04-08T06:57:24.411Z,1019.38
2017-04-08T06:58:05.292Z,1019.37
2017-04-08T06:58:46.176Z,1019.41
2017-04-08T06:59:27.055Z,1019.4
2017-04-08T07:00:07.942Z,1019.41
2017-04-08T07:00:48.829Z,1019.43
2017-04-08T07:01:29.710Z,1019.37
2017-04-08T07:02:10.616Z,1019.41
2017-04-08T07:03:43.831Z,1019.43
2017-04-08T07:04:24.719Z,1019.41
2017-04-08T07:05:05.609Z,1019.43
2017-04-08T07:05:46.499Z,1019.45
2017-04-08T07:07:24.875Z,1019.47
2017-04-08T07:08:05.768Z,1019.47
2017-04-08T07:08:46.647Z,1019.53
2017-04-08T07:09:27.526Z,1019.51
2017-04-08T07:10:08.403Z,1019.52
2017-04-08T07:10:49.286Z,1019.54
2017-04-08T07:11:30.178Z,1019.56
2017-04-08T07:12:11.052Z,1019.54
2017-04-08T07:12:51.937Z,1019.57
2017-04-08T07:13:32.823Z,1019.58
2017-04-08T07:14:13.695Z,1019.59
2017-04-08T07:14:54.573Z,1019.64
2017-04-08T07:15:35.451Z,1019.65
2017-04-08T07:16:16.329Z,1019.69
2017-04-08T07:16:57.216Z,1019.7
2017-04-08T07:17:38.102Z,1019.69
2017-04-08T07:18:18.973Z,1019.65
2017-04-08T07:18:59.849Z,1019.72
2017-04-08T07:19:40.732Z,1019.71
2017-04-08T07:20:21.616Z,1019.71
2017-04-08T07:21:02.501Z,1019.76
2017-04-08T07:21:43.391Z,1019.73
2017-04-08T07:22:24.277Z,1019.76
2017-04-08T07:23:05.174Z,1019.78
2017-04-08T07:23:46.050Z,1019.74
2017-04-08T07:24:26.937Z,1019.74
2017-04-08T07:25:07.818Z,1019.8
2017-04-08T07:25:48.704Z,1019.81
2017-04-08T07:26:29.578Z,1019.78
2017-04-08T07:27:10.460Z,1019.76
2017-04-08T07:27:51.345Z,1019.76
2017-04-08T07:28:32.227Z,1019.8
2017-04-08T07:29:13.111Z,1019.81
2017-04-08T07:29:53.983Z,1019.81
2017-04-08T07:30:34.868Z,1019.78
2017-04-08T07:31:15.750Z,1019.79
2017-04-08T07:31:56.652Z,1019.76
2017-04-08T07:32:37.534Z,1019.83
2017-04-08T07:33:18.414Z,1019.84
2017-04-08T07:33:59.298Z,1019.85
2017-04-08T07:34:40.175Z,1019.89
2017-04-08T07:35:21.059Z,1019.83
2017-04-08T07:36:01.948Z,1019.84
2017-04-08T07:36:42.832Z,1019.88
2017-04-08T07:37:23.712Z,1019.92
2017-04-08T07:38:04.578Z,1019.9
2017-04-08T07:38:45.466Z,1019.85
2017-04-08T07:39:26.355Z,1019.89
2017-04-08T07:40:07.240Z,1019.91
2017-04-08T07:40:48.122Z,1019.97
2017-04-08T07:41:29.010Z,1019.94
2017-04-08T07:42:09.892Z,1019.91
2017-04-08T07:42:50.771Z,1019.93
2017-04-08T07:43:31.658Z,1019.86
2017-04-08T07:44:12.541Z,1019.88
2017-04-08T07:44:53.438Z,1019.92
2017-04-08T07:45:34.322Z,1019.97
2017-04-08T07:46:15.215Z,1019.96
2017-04-08T07:46:56.100Z,1020.02
2017-04-08T07:47:36.983Z,1020.03
2017-04-08T07:48:17.871Z,1020.02
2017-04-08T07:48:58.757Z,1020.03
2017-04-08T07:49:39.628Z,1020.01
2017-04-08T07:50:20.514Z,1020.04
2017-04-08T07:51:01.443Z,1020.03
2017-04-08T07:51:42.321Z,1020.05
2017-04-08T07:52:23.212Z,1020.13
2017-04-08T07:53:04.103Z,1020.1
2017-04-08T07:53:44.995Z,1020.08
2017-04-08T07:54:25.871Z,1020.09
2017-04-08T07:55:06.750Z,1020.08
2017-04-08T07:55:47.640Z,1020.13
2017-04-08T07:56:28.598Z,1020.12
2017-04-08T07:57:09.480Z,1020.15
2017-04-08T07:57:50.369Z,1020.1
2017-04-08T07:58:31.251Z,1020.11
2017-04-08T07:59:12.135Z,1020.1
2017-04-08T07:59:53.013Z,1020.17
2017-04-08T08:00:33.894Z,1020.16
2017-04-08T08:01:14.779Z,1020.15
2017-04-08T08:01:55.663Z,1020.15
2017-04-08T08:02:36.545Z,1020.17
2017-04-08T08:03:17.425Z,1020.15
2017-04-08T08:03:58.319Z,1020.13
2017-04-08T08:08:00.302Z,1020.19
2017-04-08T08:08:48.128Z,1020.21
2017-04-08T08:09:29.009Z,1020.24
2017-04-08T08:10:09.886Z,1020.22
2017-04-08T08:10:50.766Z,1020.25
2017-04-08T08:11:31.647Z,1020.27
2017-04-08T08:12:12.533Z,1020.27
2017-04-08T08:14:31.449Z,1020.3
2017-04-08T08:15:12.338Z,1020.28
2017-04-08T08:15:53.224Z,1020.24
2017-04-08T08:16:34.099Z,1020.28
2017-04-08T08:17:14.989Z,1020.29
2017-04-08T08:17:55.880Z,1020.3
2017-04-08T08:18:36.763Z,1020.26
2017-04-08T08:19:17.650Z,1020.25
2017-04-08T08:19:58.538Z,1020.24
2017-04-08T08:20:39.432Z,1020.28
2017-04-08T08:22:58.313Z,1020.35
2017-04-08T08:23:39.187Z,1020.32
2017-04-08T08:24:20.080Z,1020.31
2017-04-08T08:25:00.970Z,1020.32
2017-04-08T08:25:41.850Z,1020.31
2017-04-08T08:26:22.733Z,1020.32